Time;durP1;ratioP1;P1;durP2;ratioP2;P2;SDS_P1;SDS_P2;PMS_P1;PMS_P2;Temp;Humidity;BMP_temperature;BMP_pressure;BME280_temperature;BME280_humidity;BME280_pressure;Samples;Min_cycle;Max_cycle;Signal;HPM_P1;HPM_P2
2022/07/23 00:00:31;;;;;;;5.57;3.73;;;12.70;83.40;;;;;;5063338;28;20032;-67
2022/07/23 00:02:57;;;;;;;6.83;3.73;;;12.70;83.20;;;;;;5059122;28;20037;-67
2022/07/23 00:05:22;;;;;;;5.70;3.80;;;12.80;83.00;;;;;;5039626;28;20040;-66
2022/07/23 00:07:48;;;;;;;6.30;3.87;;;12.80;83.30;;;;;;5060994;28;20080;-66
2022/07/23 00:10:14;;;;;;;7.57;4.37;;;12.80;83.10;;;;;;5044342;28;20383;-66
2022/07/23 00:12:40;;;;;;;7.97;4.37;;;12.90;83.10;;;;;;5054592;28;20045;-66
2022/07/23 00:15:08;;;;;;;8.67;4.67;;;12.90;83.20;;;;;;5063616;28;20555;-66
2022/07/23 00:17:33;;;;;;;9.20;4.87;;;12.90;83.50;;;;;;5045255;28;20291;-66
2022/07/23 00:20:00;;;;;;;8.17;5.17;;;13.00;83.30;;;;;;5056820;28;20791;-66
2022/07/23 00:22:27;;;;;;;9.97;5.20;;;13.10;82.80;;;;;;5066901;28;20070;-66
2022/07/23 00:24:53;;;;;;;8.77;4.73;;;13.20;82.80;;;;;;5060441;28;20429;-66
2022/07/23 00:27:19;;;;;;;8.00;4.87;;;13.30;82.80;;;;;;5056805;28;20374;-66
2022/07/23 00:29:44;;;;;;;7.97;4.70;;;13.30;82.50;;;;;;5034357;28;20052;-66
2022/07/23 00:32:10;;;;;;;8.63;5.13;;;13.40;82.60;;;;;;5031468;28;20118;-66
2022/07/23 00:34:36;;;;;;;10.33;4.83;;;13.50;82.50;;;;;;5039055;28;20169;-66
2022/07/23 00:37:01;;;;;;;6.50;3.90;;;13.60;83.40;;;;;;5042536;28;20049;-66
2022/07/23 00:39:27;;;;;;;6.40;4.33;;;13.60;83.40;;;;;;5048998;28;20068;-66
2022/07/23 00:41:53;;;;;;;7.23;4.30;;;13.60;83.20;;;;;;5058422;28;20404;-65
2022/07/23 00:44:21;;;;;;;6.50;4.10;;;13.60;83.00;;;;;;5066200;28;20048;-66
2022/07/23 00:46:53;;;;;;;7.63;4.10;;;13.50;82.80;;;;;;5059006;28;20069;-67
2022/07/23 00:49:30;;;;;;;10.60;4.07;;;13.50;83.20;;;;;;5052043;28;20299;-67
2022/07/23 00:51:56;;;;;;;6.63;4.10;;;13.40;83.20;;;;;;5048986;28;20659;-66
2022/07/23 00:54:24;;;;;;;5.27;4.07;;;13.40;83.30;;;;;;5044308;28;20345;-66
2022/07/23 00:56:50;;;;;;;6.23;3.93;;;13.30;83.30;;;;;;5062737;28;20888;-66
2022/07/23 00:59:16;;;;;;;6.30;4.10;;;13.30;83.20;;;;;;5036505;28;20370;-66
2022/07/23 01:01:44;;;;;;;4.03;3.47;;;13.20;83.20;;;;;;5051015;28;20127;-66
2022/07/23 01:04:10;;;;;;;6.97;3.77;;;13.10;83.10;;;;;;5034347;28;20040;-66
2022/07/23 01:06:38;;;;;;;7.93;4.27;;;13.00;83.70;;;;;;5062755;28;20294;-66
2022/07/23 01:09:07;;;;;;;7.67;4.33;;;12.90;83.70;;;;;;5039530;28;20041;-66
2022/07/23 01:11:37;;;;;;;4.27;3.27;;;12.80;84.00;;;;;;5052024;28;20348;-66
2022/07/23 01:14:16;;;;;;;8.67;4.27;;;12.80;83.90;;;;;;5038677;28;20314;-66
2022/07/23 01:16:43;;;;;;;5.33;3.97;;;12.70;83.60;;;;;;5064110;28;20325;-67
2022/07/23 01:19:09;;;;;;;10.13;4.20;;;12.60;83.50;;;;;;5044355;28;20279;-65
2022/07/23 01:21:37;;;;;;;7.63;3.90;;;12.50;83.90;;;;;;5044040;28;20287;-66
2022/07/23 01:24:04;;;;;;;6.30;3.93;;;12.50;83.90;;;;;;5062285;28;20295;-66
2022/07/23 01:26:29;;;;;;;7.57;4.20;;;12.40;84.20;;;;;;5051334;28;20298;-66
2022/07/23 01:28:55;;;;;;;6.70;4.40;;;12.30;85.00;;;;;;5035092;28;20659;-65
2022/07/23 01:31:22;;;;;;;5.93;4.53;;;12.20;85.70;;;;;;5064905;28;20142;-66
2022/07/23 01:33:48;;;;;;;8.23;4.13;;;12.20;85.60;;;;;;5045184;28;20291;-66
2022/07/23 01:36:13;;;;;;;6.13;4.33;;;12.10;85.30;;;;;;5032009;28;20363;-66
2022/07/23 01:38:39;;;;;;;5.93;4.50;;;12.10;85.00;;;;;;5063045;28;20044;-66
2022/07/23 01:41:05;;;;;;;7.83;4.57;;;12.00;84.70;;;;;;5057376;28;20387;-67
2022/07/23 01:43:30;;;;;;;7.83;4.63;;;12.00;84.70;;;;;;5041365;28;20091;-67
2022/07/23 01:45:56;;;;;;;6.27;4.17;;;11.90;84.40;;;;;;5062149;28;20037;-67
2022/07/23 01:48:22;;;;;;;7.03;4.00;;;11.90;84.30;;;;;;5057227;28;20079;-67
2022/07/23 01:50:48;;;;;;;6.80;4.43;;;11.80;84.30;;;;;;5065441;28;20036;-67
2022/07/23 01:53:14;;;;;;;11.63;5.10;;;11.80;84.40;;;;;;5039034;28;20033;-67
2022/07/23 01:55:41;;;;;;;8.17;4.83;;;11.80;84.40;;;;;;5033091;28;20041;-67
2022/07/23 01:58:07;;;;;;;8.33;4.57;;;11.70;84.50;;;;;;5056271;28;20313;-67
2022/07/23 02:00:33;;;;;;;8.60;4.60;;;11.70;84.70;;;;;;5058151;28;20775;-67
2022/07/23 02:02:59;;;;;;;8.10;4.83;;;11.70;85.10;;;;;;5044507;28;20075;-67
2022/07/23 02:05:28;;;;;;;12.47;5.13;;;11.70;85.00;;;;;;5057543;28;20311;-67
2022/07/23 02:07:54;;;;;;;11.50;5.33;;;11.70;84.90;;;;;;5060470;28;20551;-67
2022/07/23 02:10:21;;;;;;;9.00;5.13;;;11.60;84.90;;;;;;5063742;28;20283;-67
2022/07/23 02:12:47;;;;;;;9.33;4.93;;;11.60;84.90;;;;;;5050607;28;20290;-66
2022/07/23 02:15:12;;;;;;;8.53;4.30;;;11.60;84.90;;;;;;5062615;28;20307;-67
2022/07/23 02:17:38;;;;;;;9.93;4.60;;;11.50;85.10;;;;;;5046888;28;20044;-68
2022/07/23 02:20:05;;;;;;;7.77;4.43;;;11.50;85.50;;;;;;5030626;28;20507;-66
2022/07/23 02:22:31;;;;;;;10.77;5.13;;;11.50;85.80;;;;;;5043052;28;20053;-66
2022/07/23 02:24:57;;;;;;;8.70;4.40;;;11.50;85.50;;;;;;5046670;28;20317;-66
2022/07/23 02:27:23;;;;;;;7.37;4.23;;;11.50;85.40;;;;;;5040749;28;20059;-66
2022/07/23 02:29:49;;;;;;;6.87;4.63;;;11.50;85.30;;;;;;5041105;28;20074;-66
2022/07/23 02:32:15;;;;;;;6.27;4.27;;;11.50;85.70;;;;;;5061033;28;20040;-66
2022/07/23 02:34:40;;;;;;;6.17;4.23;;;11.50;85.60;;;;;;5063306;28;20309;-66
2022/07/23 02:37:08;;;;;;;8.80;4.90;;;11.50;85.60;;;;;;5042704;28;20041;-66
2022/07/23 02:39:34;;;;;;;10.27;5.47;;;11.50;85.60;;;;;;5027076;28;20040;-66
2022/07/23 02:42:00;;;;;;;8.07;4.50;;;11.60;85.70;;;;;;5025802;28;20481;-66
2022/07/23 02:44:26;;;;;;;10.87;6.23;;;11.60;85.60;;;;;;5042192;28;20290;-66
2022/07/23 02:46:51;;;;;;;11.90;5.70;;;11.60;86.20;;;;;;5011801;28;20063;-66
2022/07/23 02:49:17;;;;;;;8.60;5.23;;;11.60;86.10;;;;;;5049281;28;20098;-66
2022/07/23 02:51:43;;;;;;;11.07;5.40;;;11.60;86.30;;;;;;5035954;28;20074;-66
2022/07/23 02:54:08;;;;;;;8.30;5.30;;;11.60;86.80;;;;;;5057051;28;20056;-66
2022/07/23 02:56:34;;;;;;;6.47;4.50;;;11.50;86.80;;;;;;5041409;28;20468;-66
2022/07/23 02:59:00;;;;;;;7.53;4.97;;;11.50;87.00;;;;;;5053091;28;20080;-66
2022/07/23 03:01:25;;;;;;;6.63;4.90;;;11.50;87.00;;;;;;5039986;28;20045;-66
2022/07/23 03:03:51;;;;;;;6.20;4.70;;;11.40;87.30;;;;;;5041797;28;20044;-66
2022/07/23 03:06:17;;;;;;;10.00;4.67;;;11.40;87.20;;;;;;5036097;28;20614;-66
2022/07/23 03:08:43;;;;;;;8.30;4.30;;;11.30;86.90;;;;;;5063634;28;20098;-66
2022/07/23 03:11:10;;;;;;;10.33;4.43;;;11.30;87.40;;;;;;5055943;28;20048;-66
2022/07/23 03:13:37;;;;;;;6.07;3.70;;;11.20;88.00;;;;;;5035282;28;20036;-66
2022/07/23 03:16:04;;;;;;;7.07;3.63;;;11.20;87.80;;;;;;5059375;28;20428;-66
2022/07/23 03:18:29;;;;;;;7.30;4.13;;;11.10;87.50;;;;;;5026528;28;20286;-66
2022/07/23 03:20:55;;;;;;;6.90;3.27;;;11.10;87.40;;;;;;5046149;28;20290;-66
2022/07/23 03:23:21;;;;;;;7.17;4.07;;;11.10;87.10;;;;;;5048121;28;20040;-66
2022/07/23 03:25:48;;;;;;;6.20;4.00;;;11.10;86.90;;;;;;5045199;28;20504;-66
2022/07/23 03:28:15;;;;;;;5.45;3.53;;;11.10;86.80;;;;;;5026560;28;20067;-65
2022/07/23 03:30:42;;;;;;;5.15;4.15;;;11.10;86.70;;;;;;5042915;28;20534;-67
2022/07/23 03:33:08;;;;;;;6.10;3.90;;;11.00;86.70;;;;;;5064268;28;20086;-67
2022/07/23 03:35:33;;;;;;;6.87;3.97;;;11.00;86.70;;;;;;5064465;28;20153;-67
2022/07/23 03:37:59;;;;;;;6.10;3.90;;;11.00;86.70;;;;;;5061704;28;20041;-66
2022/07/23 03:40:25;;;;;;;7.57;4.60;;;11.00;86.90;;;;;;5040629;28;20029;-66
2022/07/23 03:42:50;;;;;;;7.17;4.60;;;11.00;87.00;;;;;;5042207;28;20040;-66
2022/07/23 03:45:16;;;;;;;9.57;4.20;;;11.00;87.80;;;;;;5045183;28;20067;-66
2022/07/23 03:47:43;;;;;;;7.90;4.87;;;11.10;88.10;;;;;;5046732;28;20081;-67
2022/07/23 03:50:12;;;;;;;8.45;4.68;;;11.10;87.90;;;;;;4909215;28;20500;-67
2022/07/23 03:52:38;;;;;;;7.05;5.13;;;11.10;87.60;;;;;;4920116;28;20032;-67
2022/07/23 03:55:04;;;;;;;9.97;5.10;;;11.10;87.80;;;;;;5037171;28;20127;-67
2022/07/23 03:57:30;;;;;;;7.10;4.60;;;11.10;87.90;;;;;;4702750;28;21177;-67
2022/07/23 03:59:56;;;;;;;9.03;5.33;;;11.10;87.80;;;;;;5034161;28;20101;-67
2022/07/23 04:02:21;;;;;;;8.57;5.00;;;11.20;87.90;;;;;;4747669;28;21774;-67
2022/07/23 04:04:53;;;;;;;7.63;5.03;;;11.20;88.30;;;;;;4744723;28;20760;-68
2022/07/23 04:07:20;;;;;;;6.65;4.93;;;11.20;88.40;;;;;;4682597;28;38143;-67
2022/07/23 04:09:45;;;;;;;6.20;4.70;;;11.20;88.10;;;;;;4682283;28;21962;-67
2022/07/23 04:12:11;;;;;;;10.97;5.20;;;11.30;88.30;;;;;;5037661;28;20912;-67
2022/07/23 04:14:37;;;;;;;8.47;5.80;;;11.30;88.40;;;;;;5044321;28;20045;-67
2022/07/23 04:17:04;;;;;;;10.53;5.13;;;11.30;88.20;;;;;;4672827;28;21198;-67
2022/07/23 04:19:30;;;;;;;6.13;4.30;;;11.30;88.00;;;;;;4559843;28;20135;-68
2022/07/23 04:21:56;;;;;;;5.95;4.65;;;11.30;87.80;;;;;;4973941;28;20040;-65
2022/07/23 04:24:31;;;;;;;9.90;5.10;;;11.40;87.70;;;;;;4966459;28;20530;-66
2022/07/23 04:26:57;;;;;;;11.65;6.10;;;11.40;88.00;;;;;;4771127;28;20484;-66
2022/07/23 04:29:24;;;;;;;8.30;5.63;;;11.40;88.00;;;;;;4966403;28;20559;-66
2022/07/23 04:31:52;;;;;;;7.73;5.80;;;11.50;87.90;;;;;;5025803;28;20291;-66
2022/07/23 04:34:18;;;;;;;8.98;6.13;;;11.50;87.90;;;;;;5012780;28;20310;-66
2022/07/23 04:36:44;;;;;;;8.87;6.07;;;11.50;87.80;;;;;;4859881;28;20677;-66
2022/07/23 04:39:10;;;;;;;9.20;5.73;;;11.60;88.00;;;;;;5024633;28;20043;-66
2022/07/23 04:41:39;;;;;;;7.17;4.70;;;11.60;88.00;;;;;;4897834;28;20032;-67
2022/07/23 04:44:04;;;;;;;7.73;4.80;;;11.70;88.20;;;;;;4611780;28;20044;-66
2022/07/23 04:46:30;;;;;;;10.93;5.23;;;11.70;88.30;;;;;;5053195;28;20700;-67
2022/07/23 04:48:56;;;;;;;7.80;4.90;;;11.70;88.40;;;;;;4947398;28;20045;-67
2022/07/23 04:51:22;;;;;;;8.07;4.90;;;11.80;88.20;;;;;;5045780;28;20430;-68
2022/07/23 04:53:47;;;;;;;7.53;5.10;;;11.80;88.10;;;;;;4783359;28;20261;-67
2022/07/23 04:56:22;;;;;;;8.57;5.20;;;11.90;88.10;;;;;;4783085;28;20703;-67
2022/07/23 04:58:50;;;;;;;8.13;4.60;;;12.20;88.20;;;;;;4860052;28;20078;-66
2022/07/23 05:01:16;;;;;;;8.43;5.03;;;12.70;88.30;;;;;;5050970;28;20054;-67
2022/07/23 05:03:42;;;;;;;8.63;5.40;;;13.30;88.00;;;;;;4724096;28;20789;-68
2022/07/23 05:06:08;;;;;;;5.63;4.33;;;14.30;86.40;;;;;;4764971;28;20471;-68
2022/07/23 05:08:33;;;;;;;9.03;4.57;;;15.30;83.30;;;;;;4775731;28;20051;-68
2022/07/23 05:10:59;;;;;;;6.43;4.33;;;16.20;80.20;;;;;;4835439;28;20044;-68
2022/07/23 05:13:25;;;;;;;7.50;4.37;;;17.00;77.10;;;;;;5019312;28;20516;-68
2022/07/23 05:16:00;;;;;;;6.23;4.27;;;17.80;75.40;;;;;;4884576;28;20402;-68
2022/07/23 05:18:27;;;;;;;;;;;18.50;73.30;;;;;;4651132;28;20048;-68
2022/07/23 05:20:56;;;;;;;6.57;4.20;;;19.10;68.60;;;;;;4722901;28;20339;-68
2022/07/23 05:23:25;;;;;;;4.27;3.70;;;19.70;70.20;;;;;;4769502;28;20947;-68
2022/07/23 05:25:51;;;;;;;8.23;3.60;;;20.20;68.00;;;;;;4798205;28;20302;-68
2022/07/23 05:28:16;;;;;;;6.07;3.60;;;20.50;65.90;;;;;;4774938;28;20306;-68
2022/07/23 05:30:42;;;;;;;9.63;3.43;;;20.80;64.60;;;;;;4816875;28;20041;-68
2022/07/23 05:33:08;;;;;;;4.43;3.07;;;21.00;63.60;;;;;;4801548;28;20083;-69
2022/07/23 05:35:34;;;;;;;8.07;3.10;;;21.10;62.00;;;;;;4847005;28;20114;-69
2022/07/23 05:38:00;;;;;;;4.30;3.00;;;21.20;61.10;;;;;;4785303;28;20045;-69
2022/07/23 05:40:26;;;;;;;6.37;2.80;;;21.20;61.40;;;;;;4746617;28;20044;-69
2022/07/23 05:42:52;;;;;;;7.13;2.53;;;21.40;61.20;;;;;;5021469;28;20298;-69
2022/07/23 05:45:17;;;;;;;4.40;2.60;;;21.60;60.60;;;;;;5032245;28;20052;-69
2022/07/23 05:47:45;;;;;;;7.03;2.10;;;21.70;59.80;;;;;;5049204;28;20392;-68
2022/07/23 05:50:12;;;;;;;2.97;1.90;;;21.70;58.80;;;;;;4962963;28;20176;-68
2022/07/23 05:52:38;;;;;;;3.40;2.00;;;21.80;59.20;;;;;;4973759;28;20342;-68
2022/07/23 05:55:05;;;;;;;4.40;2.00;;;22.00;59.00;;;;;;5029045;28;20307;-68
2022/07/23 05:57:31;;;;;;;5.67;1.80;;;22.20;58.60;;;;;;4948349;28;20298;-69
2022/07/23 05:59:56;;;;;;;2.07;1.50;;;22.20;58.60;;;;;;4641668;28;20347;-67
2022/07/23 06:02:25;;;;;;;3.00;1.47;;;22.20;58.40;;;;;;4741393;28;20040;-68
2022/07/23 06:04:51;;;;;;;5.17;1.20;;;22.00;58.20;;;;;;4809898;28;20353;-68
2022/07/23 06:07:17;;;;;;;3.60;1.40;;;21.90;58.20;;;;;;5046408;28;20041;-68
2022/07/23 06:09:42;;;;;;;1.77;0.70;;;21.90;58.20;;;;;;4952546;28;20784;-66
2022/07/23 06:12:08;;;;;;;2.43;1.00;;;21.80;58.10;;;;;;5030071;28;20085;-68
2022/07/23 06:14:34;;;;;;;2.00;0.90;;;21.90;57.80;;;;;;4821639;28;20050;-68
2022/07/23 06:16:59;;;;;;;2.03;0.57;;;22.20;57.60;;;;;;4612662;28;20033;-68
2022/07/23 06:19:25;;;;;;;2.53;0.70;;;22.30;57.20;;;;;;4844756;28;20036;-68
2022/07/23 06:21:51;;;;;;;1.10;0.70;;;22.40;55.70;;;;;;4813929;28;21108;-68
2022/07/23 06:24:17;;;;;;;1.60;0.40;;;22.40;56.10;;;;;;4944946;28;20054;-67
2022/07/23 06:26:43;;;;;;;1.07;0.60;;;22.40;55.50;;;;;;5054715;28;20057;-66
2022/07/23 06:29:08;;;;;;;1.13;0.50;;;22.40;55.50;;;;;;4959041;28;20126;-67
2022/07/23 06:31:34;;;;;;;1.27;0.80;;;22.50;55.70;;;;;;5039247;28;20487;-67
2022/07/23 06:34:00;;;;;;;2.83;0.40;;;22.60;54.90;;;;;;5004250;28;20036;-67
2022/07/23 06:36:25;;;;;;;1.53;0.40;;;22.40;54.70;;;;;;5054485;28;20036;-67
2022/07/23 06:38:51;;;;;;;2.43;0.20;;;22.40;54.60;;;;;;4949578;28;20033;-67
2022/07/23 06:41:17;;;;;;;1.00;0.20;;;22.40;54.40;;;;;;4842816;28;20562;-67
2022/07/23 06:43:43;;;;;;;2.80;0.30;;;22.50;54.40;;;;;;4751469;28;20271;-67
2022/07/23 06:46:08;;;;;;;0.77;0.23;;;22.50;54.80;;;;;;5032012;28;20091;-67
2022/07/23 06:48:35;;;;;;;2.03;0.20;;;22.60;54.40;;;;;;5049696;28;20542;-67
2022/07/23 06:51:02;;;;;;;1.27;0.20;;;22.60;54.00;;;;;;4944211;28;29331;-68
2022/07/23 06:53:28;;;;;;;1.80;0.20;;;22.60;53.90;;;;;;4656171;28;20048;-68
2022/07/23 06:55:54;;;;;;;2.07;0.20;;;22.40;53.00;;;;;;4771156;28;20111;-68
2022/07/23 06:58:20;;;;;;;0.67;0.10;;;22.30;52.30;;;;;;4768230;28;20037;-68
2022/07/23 07:00:46;;;;;;;0.43;0.27;;;21.90;53.20;;;;;;4753445;28;20645;-68
2022/07/23 07:03:12;;;;;;;1.23;0.10;;;21.40;54.70;;;;;;4760625;28;20131;-69
2022/07/23 07:05:47;;;;;;;2.17;0.20;;;20.90;55.10;;;;;;4774045;28;25340;-66
2022/07/23 07:08:34;;;;;;;1.38;0.35;;;20.60;56.40;;;;;;4796581;28;20041;-66
2022/07/23 07:11:00;;;;;;;2.20;0.20;;;20.30;57.10;;;;;;4795250;28;20048;-67
2022/07/23 07:13:26;;;;;;;1.20;0.30;;;20.10;58.40;;;;;;4785248;28;20093;-68
2022/07/23 07:15:51;;;;;;;0.23;0.23;;;20.00;59.10;;;;;;4991568;28;20372;-68
2022/07/23 07:18:17;;;;;;;0.37;0.10;;;19.90;59.10;;;;;;4923989;28;20958;-67
2022/07/23 07:23:32;;;;;;;0.33;0.10;;;19.80;59.30;;;;;;4755584;28;20383;-67
2022/07/23 07:25:58;;;;;;;1.37;0.20;;;19.70;59.60;;;;;;5026179;28;20040;-67
2022/07/23 07:28:24;;;;;;;0.97;0.20;;;19.70;59.10;;;;;;4844545;28;20048;-66
2022/07/23 07:30:49;;;;;;;0.50;0.23;;;19.60;59.70;;;;;;4614720;28;20049;-67
2022/07/23 07:33:15;;;;;;;0.60;0.10;;;19.50;59.90;;;;;;4520346;28;35463;-66
2022/07/23 07:35:41;;;;;;;0.50;0.10;;;19.50;60.00;;;;;;4986845;28;20098;-67
2022/07/23 07:38:10;;;;;;;0.60;0.20;;;19.50;60.00;;;;;;4993542;28;20517;-67
2022/07/23 07:40:37;;;;;;;0.30;0.10;;;19.50;59.90;;;;;;4638060;28;20044;-68
2022/07/23 07:43:03;;;;;;;0.57;0.17;;;19.40;59.70;;;;;;4590388;28;20992;-68
2022/07/23 07:45:29;;;;;;;1.27;0.20;;;19.30;59.80;;;;;;4593042;28;20187;-68
2022/07/23 07:47:55;;;;;;;0.53;0.10;;;19.20;60.20;;;;;;4739182;28;20036;-67
2022/07/23 07:50:21;;;;;;;1.30;0.17;;;19.10;60.20;;;;;;5066682;28;20602;-68
2022/07/23 07:52:47;;;;;;;1.37;0.10;;;19.00;59.70;;;;;;5025936;28;20148;-68
2022/07/23 07:55:13;;;;;;;0.97;0.30;;;18.90;59.90;;;;;;5028384;28;20056;-68
2022/07/23 07:57:39;;;;;;;1.73;0.20;;;18.90;60.10;;;;;;5035687;28;20083;-68
2022/07/23 08:00:07;;;;;;;2.23;0.30;;;18.80;60.50;;;;;;5048522;28;20080;-68
2022/07/23 08:02:44;;;;;;;0.87;0.20;;;18.70;61.30;;;;;;5034852;28;20068;-68
2022/07/23 08:05:10;;;;;;;1.10;0.20;;;18.80;61.90;;;;;;5054248;28;20041;-68
2022/07/23 08:07:37;;;;;;;1.10;0.20;;;18.80;61.60;;;;;;5041260;28;20040;-67
2022/07/23 08:10:03;;;;;;;0.60;0.20;;;18.80;61.10;;;;;;5033185;28;20045;-68
2022/07/23 08:12:40;;;;;;;0.97;0.10;;;18.80;61.60;;;;;;5038968;28;20329;-68
2022/07/23 08:15:07;;;;;;;1.33;0.10;;;18.80;61.10;;;;;;5040881;28;20043;-68
2022/07/23 08:17:33;;;;;;;1.40;0.20;;;18.80;60.60;;;;;;5057846;28;20370;-68
2022/07/23 08:19:59;;;;;;;0.93;0.10;;;18.80;60.10;;;;;;5029712;28;20116;-67
2022/07/23 08:22:24;;;;;;;1.00;0.40;;;18.70;59.50;;;;;;5051378;28;20083;-68
2022/07/23 08:24:50;;;;;;;1.00;0.20;;;18.70;59.70;;;;;;5049610;28;20087;-68
2022/07/23 08:27:16;;;;;;;2.53;0.20;;;18.80;59.90;;;;;;5031232;28;20055;-68
2022/07/23 08:29:41;;;;;;;0.57;0.20;;;18.80;60.20;;;;;;5041325;28;20041;-68
2022/07/23 08:32:07;;;;;;;0.70;0.20;;;18.80;60.10;;;;;;5026068;28;20401;-68
2022/07/23 08:34:32;;;;;;;1.90;0.20;;;18.80;60.00;;;;;;5054822;28;20056;-68
2022/07/23 08:36:58;;;;;;;0.97;0.20;;;18.80;59.80;;;;;;5049229;28;20029;-68
2022/07/23 08:39:24;;;;;;;1.23;0.20;;;18.70;60.10;;;;;;5050168;28;20033;-68
2022/07/23 08:41:50;;;;;;;0.47;0.20;;;18.70;60.30;;;;;;5029401;28;20036;-68
2022/07/23 08:44:17;;;;;;;0.77;0.10;;;18.70;60.10;;;;;;5052678;28;20044;-68
2022/07/23 08:46:44;;;;;;;1.27;0.20;;;18.80;60.50;;;;;;5039010;28;20106;-68
2022/07/23 08:49:10;;;;;;;1.73;0.30;;;18.80;60.80;;;;;;5045571;28;20079;-68
2022/07/23 08:51:36;;;;;;;1.33;0.20;;;18.90;61.00;;;;;;5029760;28;20041;-68
2022/07/23 08:54:02;;;;;;;0.60;0.20;;;18.90;60.80;;;;;;5030654;28;20587;-68
2022/07/23 08:56:27;;;;;;;2.47;0.20;;;18.90;60.90;;;;;;5035277;28;20057;-68
2022/07/23 08:58:54;;;;;;;1.93;0.40;;;18.90;61.00;;;;;;5030207;28;20098;-67
2022/07/23 09:01:20;;;;;;;1.47;0.30;;;18.90;61.20;;;;;;5035747;28;20048;-68
2022/07/23 09:03:46;;;;;;;0.60;0.20;;;19.00;61.80;;;;;;5036800;28;20078;-68
2022/07/23 09:06:11;;;;;;;0.97;0.30;;;19.10;61.30;;;;;;5046807;28;20069;-68
2022/07/23 09:08:39;;;;;;;1.43;0.30;;;19.20;61.30;;;;;;5013047;28;20057;-68
2022/07/23 09:11:08;;;;;;;2.00;0.30;;;19.30;60.90;;;;;;5002826;28;20520;-68
2022/07/23 09:13:38;;;;;;;3.17;0.40;;;19.40;61.00;;;;;;5018256;28;20041;-68
2022/07/23 09:16:26;;;;;;;1.47;0.30;;;19.60;61.50;;;;;;5009803;28;20052;-68
2022/07/23 09:18:54;;;;;;;2.20;0.30;;;19.80;59.50;;;;;;4998369;28;20056;-69
2022/07/23 09:21:21;;;;;;;1.70;0.40;;;19.70;59.90;;;;;;5011070;28;20512;-69
2022/07/23 09:24:00;;;;;;;2.20;0.53;;;19.70;59.60;;;;;;5025911;28;20073;-69
2022/07/23 09:26:35;;;;;;;1.80;0.30;;;19.60;59.70;;;;;;5008579;28;20037;-68
2022/07/23 09:29:08;;;;;;;1.65;0.30;;;19.60;60.10;;;;;;4993978;28;20042;-68
2022/07/23 09:31:52;;;;;;;1.33;0.30;;;19.60;60.40;;;;;;5006687;28;20305;-68
2022/07/23 09:34:28;;;;;;;0.60;0.30;;;19.80;61.10;;;;;;5008305;28;20034;-68
2022/07/23 09:36:56;;;;;;;0.93;0.33;;;20.00;60.00;;;;;;5006048;28;20041;-68
2022/07/23 09:39:28;;;;;;;0.60;0.37;;;20.20;60.00;;;;;;5021334;28;20037;-68
2022/07/23 09:41:54;;;;;;;1.27;0.30;;;20.40;59.60;;;;;;5013787;28;20045;-68
2022/07/23 09:44:21;;;;;;;1.50;0.30;;;20.70;59.10;;;;;;4994616;28;20120;-68
2022/07/23 09:46:49;;;;;;;2.47;0.53;;;20.90;58.80;;;;;;4997041;28;20401;-69
2022/07/23 09:49:20;;;;;;;2.23;0.20;;;21.10;58.10;;;;;;5009497;28;20513;-69
2022/07/23 09:51:56;;;;;;;1.43;0.30;;;21.00;57.30;;;;;;5009699;28;20033;-69
2022/07/23 09:54:27;;;;;;;0.70;0.30;;;21.00;57.80;;;;;;5006959;28;20064;-70
2022/07/23 09:56:55;;;;;;;1.13;0.30;;;21.20;57.00;;;;;;5016927;28;20498;-68
2022/07/23 09:59:30;;;;;;;1.77;0.40;;;21.40;57.30;;;;;;5018148;28;20038;-68
2022/07/23 10:01:59;;;;;;;1.90;0.87;;;21.50;57.30;;;;;;5009803;28;20038;-69
2022/07/23 10:04:27;;;;;;;1.17;0.30;;;21.40;57.30;;;;;;5008113;28;20050;-69
2022/07/23 10:06:56;;;;;;;1.43;0.40;;;21.40;58.00;;;;;;5014804;28;20532;-69
2022/07/23 10:09:28;;;;;;;2.63;0.63;;;21.30;57.20;;;;;;4995850;28;20040;-68
2022/07/23 10:12:16;;;;;;;3.53;0.70;;;21.10;57.50;;;;;;4996678;28;20046;-68
2022/07/23 10:14:42;;;;;;;2.67;0.53;;;21.20;57.50;;;;;;5011806;28;20615;-68
2022/07/23 10:17:09;;;;;;;1.03;0.40;;;21.30;58.10;;;;;;5013391;28;20494;-68
2022/07/23 10:19:35;;;;;;;2.70;0.50;;;21.50;57.90;;;;;;5005753;28;20052;-68
2022/07/23 10:22:07;;;;;;;1.73;0.60;;;21.60;57.40;;;;;;4997965;28;20045;-68
2022/07/23 10:24:55;;;;;;;2.07;0.30;;;21.70;56.90;;;;;;5009768;28;20473;-68
2022/07/23 10:27:41;;;;;;;1.40;0.57;;;21.70;57.10;;;;;;4993707;28;20041;-69
2022/07/23 10:30:36;;;;;;;1.93;0.40;;;21.70;56.90;;;;;;5006345;28;20910;-69
2022/07/23 10:33:29;;;;;;;1.70;0.60;;;21.80;56.40;;;;;;4993704;28;20053;-69
2022/07/23 10:36:16;;;;;;;1.47;0.40;;;22.00;56.90;;;;;;5009152;28;20064;-69
2022/07/23 10:39:24;;;;;;;0.87;0.40;;;22.00;56.10;;;;;;5005659;28;20270;-69
2022/07/23 10:41:50;;;;;;;2.53;0.40;;;22.00;56.30;;;;;;5005300;28;20680;-69
2022/07/23 10:44:25;;;;;;;1.80;0.50;;;22.10;56.80;;;;;;4996098;28;20064;-68
2022/07/23 10:49:36;;;;;;;3.10;0.73;;;21.80;55.90;;;;;;5006804;28;20053;-69
2022/07/23 10:52:14;;;;;;;3.30;0.40;;;21.60;56.30;;;;;;4994657;28;20071;-69
2022/07/23 10:55:10;;;;;;;1.77;0.53;;;21.60;56.60;;;;;;5008681;28;20054;-69
2022/07/23 10:57:48;;;;;;;2.30;0.60;;;21.70;57.90;;;;;;5001577;28;20833;-69
2022/07/23 11:00:23;;;;;;;2.80;0.73;;;21.80;57.70;;;;;;5007489;28;20080;-69
2022/07/23 11:02:51;;;;;;;1.25;0.75;;;22.20;57.00;;;;;;5006883;28;20033;-70
2022/07/23 11:05:20;;;;;;;1.83;0.70;;;22.60;55.70;;;;;;4994940;28;20499;-70
2022/07/23 11:08:04;;;;;;;2.83;0.60;;;22.80;55.00;;;;;;5009261;28;20076;-70
2022/07/23 11:10:48;;;;;;;2.43;0.60;;;22.90;54.60;;;;;;5011326;28;20468;-70
2022/07/23 11:13:46;;;;;;;0.80;0.40;;;22.80;54.60;;;;;;5001504;28;20124;-70
2022/07/23 11:16:15;;;;;;;1.17;0.60;;;22.80;54.00;;;;;;5019277;28;20045;-67
2022/07/23 11:18:43;;;;;;;2.40;0.47;;;22.80;55.00;;;;;;5005830;28;20065;-68
2022/07/23 11:21:22;;;;;;;2.37;0.70;;;22.60;55.20;;;;;;5010142;28;20669;-67
2022/07/23 11:23:56;;;;;;;1.50;0.60;;;22.30;55.30;;;;;;5012714;28;20052;-68
2022/07/23 11:26:48;;;;;;;3.80;0.87;;;22.30;56.10;;;;;;5005299;28;20531;-68
2022/07/23 11:29:30;;;;;;;3.03;0.90;;;22.40;55.60;;;;;;5009131;28;20490;-68
2022/07/23 11:32:02;;;;;;;1.40;0.60;;;22.50;55.20;;;;;;5005038;28;20052;-68
2022/07/23 11:34:29;;;;;;;1.70;0.73;;;22.30;55.90;;;;;;5017068;28;20142;-68
2022/07/23 11:36:55;;;;;;;2.67;0.93;;;22.20;55.50;;;;;;5005710;28;20064;-68
2022/07/23 11:39:24;;;;;;;1.70;0.80;;;22.10;56.30;;;;;;4989279;28;20041;-68
2022/07/23 11:41:52;;;;;;;2.03;0.90;;;22.00;56.80;;;;;;5005994;28;20045;-69
2022/07/23 11:44:35;;;;;;;1.67;1.00;;;22.20;56.60;;;;;;5005368;28;20053;-68
2022/07/23 11:47:10;;;;;;;2.73;1.10;;;22.20;55.70;;;;;;5007510;28;20522;-68
2022/07/23 11:49:37;;;;;;;2.22;0.80;;;22.20;56.10;;;;;;5000215;28;20042;-69
2022/07/23 11:52:14;;;;;;;4.20;0.93;;;22.30;56.10;;;;;;5005220;28;20128;-69
2022/07/23 11:54:52;;;;;;;2.80;1.33;;;22.40;55.60;;;;;;5005971;28;20065;-68
2022/07/23 11:57:19;;;;;;;4.80;0.80;;;22.60;55.10;;;;;;5010826;28;20080;-68
2022/07/23 11:59:49;;;;;;;1.50;0.80;;;22.50;55.00;;;;;;5003124;28;20042;-68
2022/07/23 12:02:15;;;;;;;1.67;0.90;;;22.60;55.70;;;;;;5020001;28;20045;-68
2022/07/23 12:04:42;;;;;;;2.70;1.03;;;22.70;55.60;;;;;;4989801;28;20041;-68
2022/07/23 12:07:27;;;;;;;1.80;1.30;;;22.80;56.10;;;;;;4985261;28;20041;-68
2022/07/23 12:09:54;;;;;;;3.05;1.00;;;22.80;57.40;;;;;;4998814;28;20060;-68
2022/07/23 12:12:20;;;;;;;1.63;0.80;;;23.10;55.70;;;;;;5001726;28;20357;-68
2022/07/23 12:14:57;;;;;;;1.40;0.63;;;23.10;54.40;;;;;;4986744;28;20164;-68
2022/07/23 12:17:29;;;;;;;2.23;0.73;;;23.30;55.20;;;;;;5026839;28;20064;-69
2022/07/23 12:19:57;;;;;;;1.70;0.87;;;23.20;54.30;;;;;;5010397;28;20034;-69
2022/07/23 12:22:25;;;;;;;2.60;0.83;;;23.30;55.30;;;;;;5011733;28;20902;-68
2022/07/23 12:25:00;;;;;;;3.07;0.90;;;23.20;55.10;;;;;;5011499;28;20532;-68
2022/07/23 12:27:26;;;;;;;2.60;1.00;;;23.20;55.80;;;;;;5012349;28;20037;-69
2022/07/23 12:29:53;;;;;;;1.33;0.73;;;23.30;56.40;;;;;;5012958;28;20770;-68
2022/07/23 12:32:25;;;;;;;2.10;1.00;;;23.40;55.90;;;;;;5000135;28;20038;-68
2022/07/23 12:35:02;;;;;;;2.03;0.80;;;23.60;55.20;;;;;;5009824;28;20144;-68
2022/07/23 12:37:48;;;;;;;2.60;1.00;;;23.70;54.50;;;;;;5013475;28;20373;-69
2022/07/23 12:40:29;;;;;;;3.10;1.00;;;23.70;54.20;;;;;;5009114;28;20541;-68
2022/07/23 12:42:58;;;;;;;1.80;0.60;;;23.80;53.00;;;;;;5013470;28;20037;-68
2022/07/23 12:45:25;;;;;;;1.57;0.87;;;23.70;53.90;;;;;;5007973;28;20480;-68
2022/07/23 12:47:58;;;;;;;2.20;0.90;;;23.70;54.10;;;;;;5007590;28;20389;-68
2022/07/23 12:50:35;;;;;;;1.50;1.00;;;23.80;54.40;;;;;;4994708;28;20084;-68
2022/07/23 12:53:16;;;;;;;3.10;1.30;;;23.90;54.10;;;;;;5017978;28;20549;-68
2022/07/23 12:55:43;;;;;;;2.70;1.17;;;23.80;54.10;;;;;;5008208;28;20119;-68
2022/07/23 12:58:12;;;;;;;2.10;0.90;;;23.90;54.00;;;;;;5012657;28;20034;-68